createdAt,value
2022-11-18T00:01:22.315Z,80.08
2022-11-18T00:03:50.449Z,79.89
2022-11-18T00:06:21.404Z,79.50
2022-11-18T00:08:48.568Z,79.40
2022-11-18T00:11:39.164Z,79.27
2022-11-18T00:14:23.432Z,79.34
2022-11-18T00:17:01.205Z,78.73
2022-11-18T00:19:35.447Z,79.47
2022-11-18T00:22:04.304Z,79.33
2022-11-18T00:24:31.972Z,79.84
2022-11-18T00:26:59.248Z,79.81
2022-11-18T00:29:28.301Z,79.22
2022-11-18T00:31:56.788Z,79.42
2022-11-18T00:34:25.220Z,79.55
2022-11-18T00:36:52.355Z,79.71
2022-11-18T00:39:21.257Z,79.70
2022-11-18T00:42:08.467Z,79.53
2022-11-18T00:44:35.677Z,79.75
2022-11-18T00:47:03.354Z,79.78
2022-11-18T00:49:30.530Z,80.34
2022-11-18T00:51:57.867Z,80.35
2022-11-18T00:54:24.703Z,80.37
2022-11-18T00:56:51.839Z,80.02
2022-11-18T00:59:18.938Z,80.07
2022-11-18T01:01:46.407Z,79.37
2022-11-18T01:04:13.459Z,80.01
2022-11-18T01:06:41.625Z,80.58
2022-11-18T01:09:08.656Z,80.38
2022-11-18T01:11:54.330Z,79.98
2022-11-18T01:14:23.669Z,79.15
2022-11-18T01:16:57.237Z,80.21
2022-11-18T01:19:25.611Z,79.52
2022-11-18T01:21:53.411Z,80.05
2022-11-18T01:24:20.447Z,80.35
2022-11-18T01:26:48.069Z,80.47
2022-11-18T01:29:15.997Z,80.87
2022-11-18T01:32:01.799Z,80.26
2022-11-18T01:34:30.274Z,80.49
2022-11-18T01:36:58.628Z,80.64
2022-11-18T01:39:25.977Z,80.63
2022-11-18T01:41:53.218Z,80.35
2022-11-18T01:44:59.989Z,80.42
2022-11-18T01:47:52.433Z,80.21
2022-11-18T01:50:23.905Z,80.09
2022-11-18T01:52:54.991Z,81.35
2022-11-18T01:55:29.246Z,80.81
2022-11-18T01:58:12.475Z,80.50
2022-11-18T02:00:40.549Z,80.16
2022-11-18T02:03:08.334Z,80.96
2022-11-18T02:05:36.779Z,81.19
2022-11-18T02:08:08.076Z,81.62
2022-11-18T02:10:34.940Z,80.79
2022-11-18T02:13:02.953Z,80.45
2022-11-18T02:15:55.615Z,81.16
2022-11-18T02:18:35.760Z,81.01
2022-11-18T02:21:19.477Z,80.81
2022-11-18T02:24:22.542Z,80.50
2022-11-18T02:27:26.989Z,80.50
2022-11-18T02:30:08.851Z,80.29
2022-11-18T02:32:47.847Z,81.30
2022-11-18T02:35:52.872Z,81.01
2022-11-18T02:38:26.665Z,81.38
2022-11-18T02:41:08.102Z,81.09
2022-11-18T02:43:44.737Z,80.56
2022-11-18T02:46:20.733Z,81.01
2022-11-18T02:48:52.884Z,80.83
2022-11-18T02:51:28.468Z,81.10
2022-11-18T02:54:05.242Z,80.75
2022-11-18T02:56:35.251Z,80.96
2022-11-18T02:59:04.559Z,79.94
2022-11-18T03:01:35.973Z,80.20
2022-11-18T03:04:03.199Z,80.61
2022-11-18T03:06:35.477Z,80.43
2022-11-18T03:09:32.626Z,80.69
2022-11-18T03:12:18.864Z,80.85
2022-11-18T03:14:59.373Z,80.12
2022-11-18T03:18:06.716Z,80.55
2022-11-18T03:20:47.830Z,80.89
2022-11-18T03:23:48.408Z,80.67
2022-11-18T03:26:29.602Z,81.42
2022-11-18T03:29:16.665Z,81.46
2022-11-18T03:31:54.494Z,81.04
2022-11-18T03:34:31.860Z,80.65
2022-11-18T03:37:10.033Z,81.71
2022-11-18T03:39:44.399Z,81.53
2022-11-18T03:42:32.073Z,81.10
2022-11-18T03:45:12.891Z,80.81
2022-11-18T03:47:47.887Z,80.50
2022-11-18T03:50:26.941Z,80.70
2022-11-18T03:52:55.281Z,80.76
2022-11-18T03:55:30.051Z,80.57
2022-11-18T03:58:19.264Z,80.97
2022-11-18T04:00:54.170Z,80.24
2022-11-18T04:03:21.240Z,80.94
2022-11-18T04:05:54.448Z,81.02
2022-11-18T04:08:36.240Z,80.84
2022-11-18T04:11:37.857Z,80.60
2022-11-18T04:14:08.459Z,80.24
2022-11-18T04:16:42.801Z,80.58
2022-11-18T04:19:10.256Z,80.82
2022-11-18T04:21:37.765Z,80.42
2022-11-18T04:24:04.917Z,80.50
2022-11-18T04:26:32.098Z,80.64
2022-11-18T04:28:58.995Z,80.76
2022-11-18T04:31:26.288Z,80.30
2022-11-18T04:33:53.119Z,79.96
2022-11-18T04:36:20.241Z,79.82
2022-11-18T04:38:47.096Z,80.25
2022-11-18T04:41:14.138Z,79.72
2022-11-18T04:43:42.283Z,80.07
2022-11-18T04:46:09.347Z,80.20
2022-11-18T04:48:36.267Z,79.87
2022-11-18T04:51:05.406Z,80.17
2022-11-18T04:53:32.633Z,80.63
2022-11-18T04:56:08.816Z,80.11
2022-11-18T04:58:35.608Z,80.53
2022-11-18T05:01:02.784Z,79.64
2022-11-18T05:03:29.673Z,79.80
2022-11-18T05:05:56.801Z,79.94
2022-11-18T05:08:23.680Z,80.46
2022-11-18T05:10:50.831Z,80.48
2022-11-18T05:13:17.690Z,79.67
2022-11-18T05:15:44.772Z,80.62
2022-11-18T05:18:11.779Z,80.15
2022-11-18T05:20:41.549Z,80.99
2022-11-18T05:23:08.649Z,80.64
2022-11-18T05:25:36.259Z,81.12
2022-11-18T05:28:03.237Z,80.64
2022-11-18T05:30:30.384Z,81.16
2022-11-18T05:32:57.173Z,80.93
2022-11-18T05:35:24.253Z,81.14
2022-11-18T05:37:51.178Z,81.15
2022-11-18T05:40:19.317Z,81.05
2022-11-18T05:43:04.910Z,81.33
2022-11-18T05:45:32.023Z,81.10
2022-11-18T05:48:04.073Z,81.46
2022-11-18T05:50:34.664Z,81.47
2022-11-18T05:53:02.721Z,81.51
2022-11-18T05:55:42.267Z,81.43
2022-11-18T05:58:09.134Z,81.76
2022-11-18T06:00:37.056Z,81.61
2022-11-18T06:03:16.167Z,81.28
2022-11-18T06:05:43.546Z,81.68
2022-11-18T06:08:14.610Z,81.43
2022-11-18T06:10:44.593Z,81.49
2022-11-18T06:13:23.203Z,80.72
2022-11-18T06:15:50.476Z,81.16
2022-11-18T06:18:26.250Z,80.96
2022-11-18T06:21:05.557Z,81.68
2022-11-18T06:23:39.655Z,81.10
2022-11-18T06:26:09.344Z,81.35
2022-11-18T06:28:37.035Z,81.75
2022-11-18T06:31:04.208Z,81.70
2022-11-18T06:33:31.052Z,81.01
2022-11-18T06:35:58.299Z,80.67
2022-11-18T06:38:25.375Z,81.26
2022-11-18T06:40:52.568Z,81.31
2022-11-18T06:43:37.877Z,81.20
2022-11-18T06:46:27.471Z,81.58
2022-11-18T06:48:54.467Z,81.06
2022-11-18T06:51:21.735Z,81.27
2022-11-18T06:53:48.703Z,81.07
2022-11-18T06:56:18.472Z,81.77
2022-11-18T06:58:45.895Z,80.96
2022-11-18T07:01:28.424Z,81.45
2022-11-18T07:03:59.311Z,80.49
2022-11-18T07:06:30.412Z,80.66
2022-11-18T07:08:59.468Z,81.37
2022-11-18T07:11:27.295Z,81.39
2022-11-18T07:13:54.597Z,80.42
2022-11-18T07:16:25.882Z,80.87
2022-11-18T07:18:54.659Z,80.52
2022-11-18T07:21:28.734Z,80.05
2022-11-18T07:23:56.888Z,80.13
2022-11-18T07:26:24.786Z,80.50
2022-11-18T07:28:52.032Z,80.04
2022-11-18T07:31:21.333Z,80.85
2022-11-18T07:33:49.350Z,80.79
2022-11-18T07:36:20.238Z,80.10
2022-11-18T07:38:47.868Z,80.55
2022-11-18T07:41:19.458Z,80.51
2022-11-18T07:43:48.329Z,81.46
2022-11-18T07:46:31.815Z,80.35
2022-11-18T07:49:01.549Z,80.44
2022-11-18T07:51:33.266Z,80.75
2022-11-18T07:54:01.157Z,79.96
2022-11-18T07:56:28.392Z,79.62
2022-11-18T07:58:56.347Z,79.46
2022-11-18T08:01:31.016Z,80.29
2022-11-18T08:04:05.669Z,80.49
2022-11-18T08:06:34.921Z,80.44
2022-11-18T08:09:02.654Z,80.34
2022-11-18T08:11:30.019Z,81.68
2022-11-18T08:13:56.947Z,80.93
2022-11-18T08:16:26.107Z,80.44
2022-11-18T08:18:53.987Z,79.28
2022-11-18T08:21:23.250Z,79.80
2022-11-18T08:23:56.312Z,80.22
2022-11-18T08:26:25.184Z,79.49
2022-11-18T08:28:53.214Z,78.45
2022-11-18T08:31:25.409Z,79.47
2022-11-18T08:34:06.332Z,78.99
2022-11-18T08:36:38.802Z,78.91
2022-11-18T08:39:09.240Z,78.45
2022-11-18T08:41:40.574Z,79.17
2022-11-18T08:44:11.749Z,79.46
2022-11-18T08:46:39.236Z,80.26
2022-11-18T08:49:06.551Z,80.60
2022-11-18T08:51:33.783Z,80.40
2022-11-18T08:54:01.111Z,79.68
2022-11-18T08:56:28.286Z,79.78
2022-11-18T08:58:56.551Z,80.23
2022-11-18T09:01:23.917Z,80.17
2022-11-18T09:03:51.056Z,80.36
2022-11-18T09:06:22.778Z,80.43
2022-11-18T09:08:49.831Z,80.63
2022-11-18T09:11:22.530Z,79.62
2022-11-18T09:16:43.818Z,79.93
2022-11-18T09:21:58.187Z,79.55
2022-11-18T09:24:25.018Z,79.76
2022-11-18T09:26:53.779Z,79.24
2022-11-18T09:29:25.475Z,78.90
2022-11-18T09:31:54.504Z,78.41
2022-11-18T09:34:22.644Z,79.70
2022-11-18T09:36:50.617Z,79.22
2022-11-18T09:39:17.639Z,79.14
2022-11-18T09:41:45.279Z,78.83
2022-11-18T09:44:30.954Z,78.26
2022-11-18T09:47:28.477Z,79.05
2022-11-18T09:50:47.866Z,79.15
2022-11-18T09:53:26.202Z,78.81
2022-11-18T09:55:55.501Z,78.74
2022-11-18T09:58:35.632Z,79.29
2022-11-18T10:01:12.619Z,78.79
2022-11-18T10:03:41.252Z,79.82
2022-11-18T10:06:23.872Z,79.22
2022-11-18T10:09:28.308Z,79.67
2022-11-18T10:12:52.271Z,79.04
2022-11-18T10:15:56.315Z,79.85
2022-11-18T10:19:01.583Z,79.73
2022-11-18T10:22:03.495Z,80.07
2022-11-18T10:25:00.888Z,79.60
2022-11-18T10:27:40.719Z,79.36
2022-11-18T10:30:19.993Z,79.23
2022-11-18T10:33:19.749Z,79.94
2022-11-18T10:35:46.688Z,79.62
2022-11-18T10:38:13.810Z,79.56
2022-11-18T10:41:01.256Z,79.56
2022-11-18T10:43:56.317Z,79.08
2022-11-18T10:46:31.006Z,79.60
2022-11-18T10:49:10.014Z,79.66
2022-11-18T10:51:47.257Z,79.52
2022-11-18T10:54:23.261Z,79.25
2022-11-18T10:57:11.049Z,79.64
2022-11-18T10:59:44.461Z,79.90
2022-11-18T11:02:35.096Z,80.35
2022-11-18T11:05:16.664Z,79.83
2022-11-18T11:07:43.905Z,79.81
2022-11-18T11:10:12.774Z,79.38
2022-11-18T11:12:48.907Z,79.32
2022-11-18T11:15:52.504Z,79.55
2022-11-18T11:18:44.202Z,80.07
2022-11-18T11:21:17.569Z,79.41
2022-11-18T11:23:46.235Z,79.96
2022-11-18T11:29:16.142Z,79.81
2022-11-18T11:32:10.211Z,80.11
2022-11-18T11:34:57.959Z,79.25
2022-11-18T11:37:58.997Z,79.49
2022-11-18T11:40:39.834Z,79.60
2022-11-18T11:43:43.708Z,79.64
2022-11-18T11:46:41.345Z,79.75
2022-11-18T11:49:54.246Z,79.64
2022-11-18T11:52:53.520Z,79.95
2022-11-18T11:56:04.524Z,79.23
2022-11-18T11:59:36.386Z,79.86
2022-11-18T12:02:47.754Z,78.66
2022-11-18T12:05:34.316Z,79.43
2022-11-18T12:08:14.364Z,78.41
2022-11-18T12:11:29.490Z,79.22
2022-11-18T12:14:10.619Z,78.93
2022-11-18T12:17:01.508Z,79.10
2022-11-18T12:19:28.792Z,79.04
2022-11-18T12:22:00.530Z,78.31
2022-11-18T12:24:40.555Z,77.72
2022-11-18T12:27:10.256Z,77.68
2022-11-18T12:29:49.597Z,76.59
2022-11-18T12:32:46.975Z,78.12
2022-11-18T12:35:14.129Z,77.10
2022-11-18T12:37:46.055Z,77.16
2022-11-18T12:40:34.413Z,76.44
2022-11-18T12:43:21.291Z,76.55
2022-11-18T12:45:53.908Z,75.43
2022-11-18T12:48:27.363Z,75.38
2022-11-18T12:51:00.976Z,76.37
2022-11-18T12:53:41.309Z,76.75
2022-11-18T12:56:33.560Z,76.43
2022-11-18T12:59:02.630Z,75.54
2022-11-18T13:01:35.482Z,74.89
2022-11-18T13:04:16.342Z,76.21
2022-11-18T13:06:44.930Z,75.75
2022-11-18T13:09:21.552Z,76.74
2022-11-18T13:11:57.536Z,76.00
2022-11-18T13:14:50.492Z,76.14
2022-11-18T13:17:52.530Z,76.08
2022-11-18T13:20:22.981Z,76.28
2022-11-18T13:23:15.531Z,76.32
2022-11-18T13:25:45.824Z,76.26
2022-11-18T13:28:45.308Z,77.18
2022-11-18T13:31:52.840Z,76.65
2022-11-18T13:34:23.784Z,76.87
2022-11-18T13:36:54.084Z,77.14
2022-11-18T13:39:32.429Z,76.49
2022-11-18T13:42:00.967Z,76.24
2022-11-18T13:44:32.195Z,77.05
2022-11-18T13:47:36.703Z,76.71
2022-11-18T13:50:22.534Z,76.85
2022-11-18T13:53:07.293Z,76.88
2022-11-18T13:55:52.515Z,77.31
2022-11-18T13:58:19.416Z,76.73
2022-11-18T14:01:03.705Z,77.01
2022-11-18T14:03:44.366Z,76.73
2022-11-18T14:06:11.685Z,76.39
2022-11-18T14:08:40.013Z,76.95
2022-11-18T14:11:07.652Z,76.84
2022-11-18T14:13:51.905Z,76.73
2022-11-18T14:16:18.884Z,76.48
2022-11-18T14:18:49.513Z,76.38
2022-11-18T14:21:29.309Z,76.26
2022-11-18T14:23:57.352Z,76.34
2022-11-18T14:26:31.300Z,76.13
2022-11-18T14:29:02.997Z,75.31
2022-11-18T14:31:32.297Z,74.76
2022-11-18T14:34:26.982Z,74.12
2022-11-18T14:36:56.059Z,73.88
2022-11-18T14:39:31.992Z,75.11
2022-11-18T14:41:59.984Z,74.81
2022-11-18T14:44:28.589Z,75.62
2022-11-18T14:47:00.705Z,75.64
2022-11-18T14:49:31.658Z,75.23
2022-11-18T14:52:02.498Z,76.16
2022-11-18T14:54:30.714Z,75.73
2022-11-18T14:57:02.666Z,75.84
2022-11-18T14:59:30.437Z,75.75
2022-11-18T15:01:58.833Z,75.52
2022-11-18T15:04:26.523Z,75.95
2022-11-18T15:06:53.857Z,73.65
2022-11-18T15:09:21.881Z,74.72
2022-11-18T15:11:48.751Z,74.17
2022-11-18T15:14:16.265Z,75.35
2022-11-18T15:16:43.401Z,75.64
2022-11-18T15:19:16.080Z,75.12
2022-11-18T15:21:45.372Z,75.96
2022-11-18T15:24:12.898Z,75.70
2022-11-18T15:26:44.342Z,75.88
2022-11-18T15:29:24.521Z,76.07
2022-11-18T15:31:52.350Z,76.13
2022-11-18T15:34:21.188Z,75.82
2022-11-18T15:36:49.250Z,76.09
2022-11-18T15:39:16.459Z,75.97
2022-11-18T15:41:44.423Z,76.26
2022-11-18T15:44:12.267Z,74.69
2022-11-18T15:46:39.699Z,76.19
2022-11-18T15:49:09.751Z,76.08
2022-11-18T15:51:37.021Z,76.53
2022-11-18T15:54:04.184Z,76.85
2022-11-18T15:56:32.877Z,76.32
2022-11-18T15:59:11.379Z,76.10
2022-11-18T16:01:41.883Z,76.47
2022-11-18T16:04:12.062Z,76.31
2022-11-18T16:06:39.737Z,75.90
2022-11-18T16:09:07.197Z,75.22
2022-11-18T16:11:52.827Z,74.88
2022-11-18T16:14:23.009Z,74.94
2022-11-18T16:16:53.127Z,75.17
2022-11-18T16:19:24.701Z,76.10
2022-11-18T16:21:56.997Z,75.99
2022-11-18T16:24:29.467Z,75.18
2022-11-18T16:26:57.102Z,75.02
2022-11-18T16:29:24.769Z,75.60
2022-11-18T16:31:52.969Z,75.85
2022-11-18T16:34:25.480Z,75.48
2022-11-18T16:36:59.756Z,75.48
2022-11-18T16:39:28.728Z,75.65
2022-11-18T16:42:06.821Z,74.56
2022-11-18T16:44:35.282Z,75.24
2022-11-18T16:47:02.320Z,75.66
2022-11-18T16:49:29.475Z,76.35
2022-11-18T16:51:57.765Z,75.61
2022-11-18T16:54:31.951Z,77.04
2022-11-18T16:57:00.011Z,75.58
2022-11-18T16:59:30.662Z,76.00
2022-11-18T17:02:00.141Z,74.63
2022-11-18T17:04:30.115Z,74.15
2022-11-18T17:06:59.848Z,74.29
2022-11-18T17:09:27.959Z,72.80
2022-11-18T17:11:56.003Z,73.46
2022-11-18T17:14:23.682Z,73.95
2022-11-18T17:16:52.423Z,73.39
2022-11-18T17:19:22.595Z,73.30
2022-11-18T17:21:51.844Z,73.46
2022-11-18T17:24:22.666Z,73.06
2022-11-18T17:26:52.089Z,72.98
2022-11-18T17:29:20.165Z,73.94
2022-11-18T17:31:47.285Z,73.91
2022-11-18T17:34:15.979Z,73.57
2022-11-18T17:36:43.616Z,73.44
2022-11-18T17:39:12.460Z,72.61
2022-11-18T17:41:58.330Z,73.60
2022-11-18T17:44:27.810Z,74.08
2022-11-18T17:46:54.882Z,73.63
2022-11-18T17:49:22.503Z,72.58
2022-11-18T17:51:51.324Z,72.58
2022-11-18T17:54:19.617Z,74.15
2022-11-18T17:56:47.401Z,73.48
2022-11-18T17:59:15.913Z,73.10
2022-11-18T18:01:44.334Z,72.92
2022-11-18T18:04:14.631Z,72.75
2022-11-18T18:06:41.566Z,72.80
2022-11-18T18:09:08.701Z,72.90
2022-11-18T18:11:35.565Z,72.39
2022-11-18T18:14:14.681Z,72.42
2022-11-18T18:16:48.152Z,72.66
2022-11-18T18:19:19.670Z,73.27
2022-11-18T18:21:47.432Z,73.94
2022-11-18T18:24:18.343Z,74.02
2022-11-18T18:26:45.791Z,74.21
2022-11-18T18:29:13.504Z,74.55
2022-11-18T18:31:41.253Z,73.90
2022-11-18T18:34:08.469Z,74.29
2022-11-18T18:36:35.635Z,73.98
2022-11-18T18:39:03.711Z,73.93
2022-11-18T18:41:32.414Z,73.44
2022-11-18T18:44:00.441Z,73.54
2022-11-18T18:46:29.004Z,73.27
2022-11-18T18:49:05.060Z,73.37
2022-11-18T18:51:40.328Z,73.25
2022-11-18T18:54:12.254Z,74.01
2022-11-18T18:56:40.273Z,73.98
2022-11-18T18:59:07.937Z,73.14
2022-11-18T19:01:35.610Z,72.20
2022-11-18T19:04:06.556Z,73.60
2022-11-18T19:06:59.366Z,73.51
2022-11-18T19:09:26.203Z,73.39
2022-11-18T19:12:12.732Z,73.33
2022-11-18T19:14:40.010Z,73.06
2022-11-18T19:17:12.632Z,73.22
2022-11-18T19:20:00.610Z,72.53
2022-11-18T19:22:31.858Z,71.51
2022-11-18T19:25:00.418Z,71.29
2022-11-18T19:27:28.014Z,72.72
2022-11-18T19:29:55.200Z,72.16
2022-11-18T19:32:22.313Z,71.69
2022-11-18T19:34:49.432Z,71.04
2022-11-18T19:37:16.280Z,69.49
2022-11-18T19:39:43.545Z,71.40
2022-11-18T19:42:11.029Z,72.15
2022-11-18T19:44:39.268Z,72.03
2022-11-18T19:47:06.314Z,72.25
2022-11-18T19:49:33.503Z,71.66
2022-11-18T19:52:00.372Z,70.98
2022-11-18T19:54:27.563Z,72.47
2022-11-18T19:56:54.415Z,72.00
2022-11-18T19:59:21.809Z,72.19
2022-11-18T20:01:49.033Z,71.80
2022-11-18T20:04:16.304Z,72.07
2022-11-18T20:06:43.200Z,71.81
2022-11-18T20:09:11.701Z,72.29
2022-11-18T20:11:38.740Z,71.84
2022-11-18T20:14:08.286Z,71.60
2022-11-18T20:16:37.398Z,72.64
2022-11-18T20:19:10.810Z,73.46
2022-11-18T20:21:43.415Z,73.13
2022-11-18T20:24:16.793Z,71.73
2022-11-18T20:26:44.515Z,72.90
2022-11-18T20:29:12.491Z,71.78
2022-11-18T20:31:39.602Z,71.43
2022-11-18T20:34:07.100Z,72.17
2022-11-18T20:36:37.109Z,72.69
2022-11-18T20:39:16.344Z,72.98
2022-11-18T20:42:04.634Z,72.33
2022-11-18T20:44:31.873Z,71.88
2022-11-18T20:46:58.819Z,71.81
2022-11-18T20:49:26.108Z,71.30
2022-11-18T20:51:53.033Z,72.18
2022-11-18T20:54:20.225Z,70.88
2022-11-18T20:56:47.089Z,72.75
2022-11-18T20:59:14.212Z,71.92
2022-11-18T21:01:41.324Z,71.97
2022-11-18T21:04:11.545Z,71.31
2022-11-18T21:06:38.640Z,70.53
2022-11-18T21:09:07.704Z,70.67
2022-11-18T21:11:36.447Z,71.36
2022-11-18T21:14:25.571Z,71.11
2022-11-18T21:17:00.595Z,71.28
2022-11-18T21:19:29.182Z,70.41
2022-11-18T21:21:57.021Z,70.37
2022-11-18T21:24:33.008Z,70.62
2022-11-18T21:27:02.163Z,69.27
2022-11-18T21:29:32.423Z,70.02
2022-11-18T21:32:01.604Z,70.51
2022-11-18T21:34:30.163Z,68.37
2022-11-18T21:36:57.328Z,68.68
2022-11-18T21:39:25.303Z,69.00
2022-11-18T21:41:56.406Z,69.50
2022-11-18T21:44:25.836Z,70.17
2022-11-18T21:46:52.750Z,69.60
2022-11-18T21:49:20.252Z,70.02
2022-11-18T21:51:47.325Z,69.12
2022-11-18T21:54:16.081Z,68.04
2022-11-18T21:56:43.160Z,69.23
2022-11-18T21:59:10.357Z,68.86
2022-11-18T22:01:37.317Z,70.59
2022-11-18T22:04:05.698Z,69.67
2022-11-18T22:06:34.596Z,70.02
2022-11-18T22:09:04.434Z,70.39
2022-11-18T22:11:31.239Z,71.31
2022-11-18T22:13:58.637Z,70.53
2022-11-18T22:16:28.628Z,71.56
2022-11-18T22:19:01.427Z,71.08
2022-11-18T22:21:32.293Z,68.16
2022-11-18T22:24:01.142Z,69.17
2022-11-18T22:26:28.955Z,69.93
2022-11-18T22:28:58.411Z,69.46
2022-11-18T22:31:28.322Z,70.51
2022-11-18T22:33:56.920Z,69.25
2022-11-18T22:36:27.541Z,68.98
2022-11-18T22:38:55.808Z,68.75
2022-11-18T22:41:45.325Z,69.14
2022-11-18T22:44:15.986Z,69.74
2022-11-18T22:46:45.396Z,68.98
2022-11-18T22:49:13.879Z,68.47
2022-11-18T22:51:41.266Z,67.76
2022-11-18T22:54:37.311Z,68.53
2022-11-18T22:56:56.906Z,68.14
2022-11-18T22:59:24.805Z,66.45
2022-11-18T23:01:52.834Z,67.13
2022-11-18T23:04:20.170Z,66.92
2022-11-18T23:06:48.818Z,68.26
2022-11-18T23:09:16.016Z,65.92
2022-11-18T23:12:21.282Z,64.83
2022-11-18T23:14:48.426Z,66.09
2022-11-18T23:17:16.064Z,64.29
2022-11-18T23:19:43.999Z,65.00
2022-11-18T23:22:12.911Z,64.24
2022-11-18T23:24:40.148Z,63.96
2022-11-18T23:27:07.433Z,66.24
2022-11-18T23:29:34.606Z,65.88
2022-11-18T23:32:01.478Z,64.88
2022-11-18T23:34:28.709Z,64.02
2022-11-18T23:36:55.749Z,62.67
2022-11-18T23:39:22.906Z,62.08
2022-11-18T23:41:49.813Z,63.42
2022-11-18T23:44:16.896Z,65.63
2022-11-18T23:46:43.757Z,62.81
2022-11-18T23:49:10.909Z,63.32
2022-11-18T23:51:37.751Z,62.11
2022-11-18T23:54:05.175Z,62.57
2022-11-18T23:56:37.447Z,62.63
2022-11-18T23:59:05.529Z,61.91
